sensor_id;sensor_type;location;lat;lon;timestamp;P1;durP1;ratioP1;P2;durP2;ratioP2
48743;SDS011;34538;48.836;9.174;2023-06-10T00:00:16;8.40;;;6.68;;
48743;SDS011;34538;48.836;9.174;2023-06-10T00:02:43;10.60;;;7.15;;
48743;SDS011;34538;48.836;9.174;2023-06-10T00:05:10;10.23;;;7.43;;
48743;SDS011;34538;48.836;9.174;2023-06-10T00:07:37;9.90;;;6.82;;
48743;SDS011;34538;48.836;9.174;2023-06-10T00:10:04;11.20;;;8.10;;
48743;SDS011;34538;48.836;9.174;2023-06-10T00:12:33;9.85;;;7.00;;
48743;SDS011;34538;48.836;9.174;2023-06-10T00:15:02;10.10;;;7.00;;
48743;SDS011;34538;48.836;9.174;2023-06-10T00:17:29;12.95;;;6.95;;
48743;SDS011;34538;48.836;9.174;2023-06-10T00:19:57;11.25;;;8.02;;
48743;SDS011;34538;48.836;9.174;2023-06-10T00:22:24;9.85;;;7.68;;
48743;SDS011;34538;48.836;9.174;2023-06-10T00:24:54;10.10;;;7.43;;
48743;SDS011;34538;48.836;9.174;2023-06-10T00:27:21;10.98;;;7.78;;
48743;SDS011;34538;48.836;9.174;2023-06-10T00:29:50;11.85;;;7.60;;
48743;SDS011;34538;48.836;9.174;2023-06-10T00:32:16;9.48;;;7.25;;
48743;SDS011;34538;48.836;9.174;2023-06-10T00:34:43;9.60;;;7.72;;
48743;SDS011;34538;48.836;9.174;2023-06-10T00:37:10;11.18;;;7.25;;
48743;SDS011;34538;48.836;9.174;2023-06-10T00:39:37;12.68;;;7.88;;
48743;SDS011;34538;48.836;9.174;2023-06-10T00:42:04;11.77;;;8.32;;
48743;SDS011;34538;48.836;9.174;2023-06-10T00:44:32;12.88;;;7.63;;
48743;SDS011;34538;48.836;9.174;2023-06-10T00:47:00;9.93;;;7.60;;
48743;SDS011;34538;48.836;9.174;2023-06-10T00:49:27;9.02;;;7.40;;
48743;SDS011;34538;48.836;9.174;2023-06-10T00:51:54;12.10;;;7.70;;
48743;SDS011;34538;48.836;9.174;2023-06-10T00:54:21;10.57;;;7.47;;
48743;SDS011;34538;48.836;9.174;2023-06-10T00:56:48;9.80;;;7.38;;
48743;SDS011;34538;48.836;9.174;2023-06-10T00:59:16;12.50;;;7.70;;
48743;SDS011;34538;48.836;9.174;2023-06-10T01:01:43;10.73;;;7.03;;
48743;SDS011;34538;48.836;9.174;2023-06-10T01:04:13;9.45;;;7.28;;
48743;SDS011;34538;48.836;9.174;2023-06-10T01:06:47;9.57;;;7.18;;
48743;SDS011;34538;48.836;9.174;2023-06-10T01:09:23;9.95;;;7.13;;
48743;SDS011;34538;48.836;9.174;2023-06-10T01:11:58;13.60;;;7.32;;
48743;SDS011;34538;48.836;9.174;2023-06-10T01:14:28;9.85;;;7.35;;
48743;SDS011;34538;48.836;9.174;2023-06-10T01:16:57;8.38;;;7.03;;
48743;SDS011;34538;48.836;9.174;2023-06-10T01:19:26;10.05;;;7.32;;
48743;SDS011;34538;48.836;9.174;2023-06-10T01:21:56;10.32;;;8.10;;
48743;SDS011;34538;48.836;9.174;2023-06-10T01:24:25;10.98;;;7.28;;
48743;SDS011;34538;48.836;9.174;2023-06-10T01:26:52;11.27;;;7.85;;
48743;SDS011;34538;48.836;9.174;2023-06-10T01:29:24;9.10;;;7.38;;
48743;SDS011;34538;48.836;9.174;2023-06-10T01:31:59;9.45;;;7.47;;
48743;SDS011;34538;48.836;9.174;2023-06-10T01:34:29;10.77;;;7.05;;
48743;SDS011;34538;48.836;9.174;2023-06-10T01:37:00;9.85;;;7.88;;
48743;SDS011;34538;48.836;9.174;2023-06-10T01:39:28;9.43;;;7.40;;
48743;SDS011;34538;48.836;9.174;2023-06-10T01:41:55;10.88;;;8.20;;
48743;SDS011;34538;48.836;9.174;2023-06-10T01:44:23;10.77;;;7.93;;
48743;SDS011;34538;48.836;9.174;2023-06-10T01:46:50;10.10;;;7.43;;
48743;SDS011;34538;48.836;9.174;2023-06-10T01:49:17;10.52;;;7.28;;
48743;SDS011;34538;48.836;9.174;2023-06-10T01:51:43;10.35;;;7.38;;
48743;SDS011;34538;48.836;9.174;2023-06-10T01:54:11;9.95;;;7.13;;
48743;SDS011;34538;48.836;9.174;2023-06-10T01:56:38;9.23;;;7.03;;
48743;SDS011;34538;48.836;9.174;2023-06-10T01:59:05;11.40;;;7.70;;
48743;SDS011;34538;48.836;9.174;2023-06-10T02:01:32;10.82;;;7.82;;
48743;SDS011;34538;48.836;9.174;2023-06-10T02:04:00;9.60;;;7.43;;
48743;SDS011;34538;48.836;9.174;2023-06-10T02:06:31;10.10;;;7.63;;
48743;SDS011;34538;48.836;9.174;2023-06-10T02:08:57;9.27;;;7.88;;
48743;SDS011;34538;48.836;9.174;2023-06-10T02:11:28;10.35;;;8.00;;
48743;SDS011;34538;48.836;9.174;2023-06-10T02:13:55;8.68;;;7.10;;
48743;SDS011;34538;48.836;9.174;2023-06-10T02:16:21;9.88;;;7.50;;
48743;SDS011;34538;48.836;9.174;2023-06-10T02:18:49;12.00;;;8.15;;
48743;SDS011;34538;48.836;9.174;2023-06-10T02:21:15;10.25;;;7.85;;
48743;SDS011;34538;48.836;9.174;2023-06-10T02:23:42;11.15;;;7.85;;
48743;SDS011;34538;48.836;9.174;2023-06-10T02:26:09;10.07;;;7.95;;
48743;SDS011;34538;48.836;9.174;2023-06-10T02:28:37;10.98;;;8.10;;
48743;SDS011;34538;48.836;9.174;2023-06-10T02:31:04;10.48;;;8.23;;
48743;SDS011;34538;48.836;9.174;2023-06-10T02:33:32;10.82;;;7.63;;
48743;SDS011;34538;48.836;9.174;2023-06-10T02:35:58;11.45;;;8.35;;
48743;SDS011;34538;48.836;9.174;2023-06-10T02:38:26;9.52;;;7.63;;
48743;SDS011;34538;48.836;9.174;2023-06-10T02:40:54;11.25;;;7.88;;
48743;SDS011;34538;48.836;9.174;2023-06-10T02:43:21;9.65;;;7.85;;
48743;SDS011;34538;48.836;9.174;2023-06-10T02:45:50;9.85;;;7.75;;
48743;SDS011;34538;48.836;9.174;2023-06-10T02:48:17;13.23;;;8.60;;
48743;SDS011;34538;48.836;9.174;2023-06-10T02:50:44;9.77;;;7.78;;
48743;SDS011;34538;48.836;9.174;2023-06-10T02:53:20;11.43;;;8.48;;
48743;SDS011;34538;48.836;9.174;2023-06-10T02:55:53;11.20;;;7.50;;
48743;SDS011;34538;48.836;9.174;2023-06-10T02:58:20;9.57;;;7.72;;
48743;SDS011;34538;48.836;9.174;2023-06-10T03:00:47;11.30;;;7.95;;
48743;SDS011;34538;48.836;9.174;2023-06-10T03:03:15;11.05;;;8.35;;
48743;SDS011;34538;48.836;9.174;2023-06-10T03:05:59;11.75;;;9.02;;
48743;SDS011;34538;48.836;9.174;2023-06-10T03:08:26;11.68;;;8.88;;
48743;SDS011;34538;48.836;9.174;2023-06-10T03:10:55;11.57;;;8.65;;
48743;SDS011;34538;48.836;9.174;2023-06-10T03:13:22;12.63;;;8.82;;
48743;SDS011;34538;48.836;9.174;2023-06-10T03:15:51;11.85;;;8.40;;
48743;SDS011;34538;48.836;9.174;2023-06-10T03:18:20;9.70;;;7.80;;
48743;SDS011;34538;48.836;9.174;2023-06-10T03:20:49;10.18;;;8.02;;
48743;SDS011;34538;48.836;9.174;2023-06-10T03:23:17;10.25;;;7.32;;
48743;SDS011;34538;48.836;9.174;2023-06-10T03:25:44;9.98;;;7.68;;
48743;SDS011;34538;48.836;9.174;2023-06-10T03:28:15;10.32;;;7.55;;
48743;SDS011;34538;48.836;9.174;2023-06-10T03:30:42;11.13;;;8.00;;
48743;SDS011;34538;48.836;9.174;2023-06-10T03:33:11;10.10;;;7.60;;
48743;SDS011;34538;48.836;9.174;2023-06-10T03:35:39;11.45;;;7.88;;
48743;SDS011;34538;48.836;9.174;2023-06-10T03:38:07;10.73;;;7.43;;
48743;SDS011;34538;48.836;9.174;2023-06-10T03:40:34;11.15;;;7.22;;
48743;SDS011;34538;48.836;9.174;2023-06-10T03:43:01;9.45;;;7.10;;
48743;SDS011;34538;48.836;9.174;2023-06-10T03:45:29;9.75;;;6.78;;
48743;SDS011;34538;48.836;9.174;2023-06-10T03:47:57;9.30;;;7.47;;
48743;SDS011;34538;48.836;9.174;2023-06-10T03:50:31;8.88;;;7.22;;
48743;SDS011;34538;48.836;9.174;2023-06-10T03:52:58;9.45;;;7.38;;
48743;SDS011;34538;48.836;9.174;2023-06-10T03:55:26;9.95;;;7.80;;
48743;SDS011;34538;48.836;9.174;2023-06-10T03:57:54;11.95;;;7.65;;
48743;SDS011;34538;48.836;9.174;2023-06-10T04:00:21;11.57;;;8.05;;
48743;SDS011;34538;48.836;9.174;2023-06-10T04:02:48;9.85;;;7.57;;
48743;SDS011;34538;48.836;9.174;2023-06-10T04:05:27;9.90;;;7.60;;
48743;SDS011;34538;48.836;9.174;2023-06-10T04:07:57;10.20;;;7.70;;
48743;SDS011;34538;48.836;9.174;2023-06-10T04:10:24;9.52;;;7.85;;
48743;SDS011;34538;48.836;9.174;2023-06-10T04:12:53;10.00;;;7.68;;
48743;SDS011;34538;48.836;9.174;2023-06-10T04:15:21;11.02;;;8.02;;
48743;SDS011;34538;48.836;9.174;2023-06-10T04:17:48;10.32;;;7.38;;
48743;SDS011;34538;48.836;9.174;2023-06-10T04:20:16;9.77;;;7.45;;
48743;SDS011;34538;48.836;9.174;2023-06-10T04:22:46;10.02;;;7.20;;
48743;SDS011;34538;48.836;9.174;2023-06-10T04:25:16;9.82;;;7.78;;
48743;SDS011;34538;48.836;9.174;2023-06-10T04:27:43;14.02;;;7.75;;
48743;SDS011;34538;48.836;9.174;2023-06-10T04:30:10;9.60;;;7.18;;
48743;SDS011;34538;48.836;9.174;2023-06-10T04:32:39;10.65;;;7.53;;
48743;SDS011;34538;48.836;9.174;2023-06-10T04:35:11;10.38;;;7.07;;
48743;SDS011;34538;48.836;9.174;2023-06-10T04:37:40;11.60;;;7.38;;
48743;SDS011;34538;48.836;9.174;2023-06-10T04:40:08;12.02;;;8.02;;
48743;SDS011;34538;48.836;9.174;2023-06-10T04:42:37;10.45;;;7.88;;
48743;SDS011;34538;48.836;9.174;2023-06-10T04:45:04;10.82;;;7.20;;
48743;SDS011;34538;48.836;9.174;2023-06-10T04:47:33;10.50;;;7.82;;
48743;SDS011;34538;48.836;9.174;2023-06-10T04:50:01;11.48;;;7.53;;
48743;SDS011;34538;48.836;9.174;2023-06-10T04:52:28;10.18;;;7.15;;
48743;SDS011;34538;48.836;9.174;2023-06-10T04:54:56;9.05;;;7.22;;
48743;SDS011;34538;48.836;9.174;2023-06-10T04:57:23;8.50;;;6.47;;
48743;SDS011;34538;48.836;9.174;2023-06-10T04:59:52;8.93;;;6.60;;
48743;SDS011;34538;48.836;9.174;2023-06-10T05:02:19;11.07;;;7.60;;
48743;SDS011;34538;48.836;9.174;2023-06-10T05:04:46;8.80;;;6.53;;
48743;SDS011;34538;48.836;9.174;2023-06-10T05:07:13;11.25;;;6.78;;
48743;SDS011;34538;48.836;9.174;2023-06-10T05:09:39;8.63;;;6.68;;
48743;SDS011;34538;48.836;9.174;2023-06-10T05:12:07;9.02;;;6.35;;
48743;SDS011;34538;48.836;9.174;2023-06-10T05:14:34;9.68;;;6.55;;
48743;SDS011;34538;48.836;9.174;2023-06-10T05:17:03;8.68;;;6.32;;
48743;SDS011;34538;48.836;9.174;2023-06-10T05:19:31;8.82;;;6.75;;
48743;SDS011;34538;48.836;9.174;2023-06-10T05:21:58;9.10;;;5.47;;
48743;SDS011;34538;48.836;9.174;2023-06-10T05:24:25;8.57;;;5.93;;
48743;SDS011;34538;48.836;9.174;2023-06-10T05:26:51;8.07;;;5.50;;
48743;SDS011;34538;48.836;9.174;2023-06-10T05:29:18;7.65;;;5.00;;
48743;SDS011;34538;48.836;9.174;2023-06-10T05:31:45;7.50;;;5.63;;
48743;SDS011;34538;48.836;9.174;2023-06-10T05:34:13;8.00;;;5.35;;
48743;SDS011;34538;48.836;9.174;2023-06-10T05:36:40;7.28;;;5.28;;
48743;SDS011;34538;48.836;9.174;2023-06-10T05:39:07;7.32;;;4.78;;
48743;SDS011;34538;48.836;9.174;2023-06-10T05:41:35;6.72;;;4.60;;
48743;SDS011;34538;48.836;9.174;2023-06-10T05:44:02;6.47;;;4.80;;
48743;SDS011;34538;48.836;9.174;2023-06-10T05:46:29;6.13;;;4.75;;
48743;SDS011;34538;48.836;9.174;2023-06-10T05:48:56;5.68;;;4.55;;
48743;SDS011;34538;48.836;9.174;2023-06-10T05:51:24;6.72;;;4.60;;
48743;SDS011;34538;48.836;9.174;2023-06-10T05:53:52;6.95;;;4.82;;
48743;SDS011;34538;48.836;9.174;2023-06-10T05:56:19;5.68;;;4.05;;
48743;SDS011;34538;48.836;9.174;2023-06-10T05:58:46;6.68;;;4.35;;
48743;SDS011;34538;48.836;9.174;2023-06-10T06:01:13;5.93;;;4.28;;
48743;SDS011;34538;48.836;9.174;2023-06-10T06:03:40;6.40;;;4.43;;
48743;SDS011;34538;48.836;9.174;2023-06-10T06:06:07;6.03;;;4.40;;
48743;SDS011;34538;48.836;9.174;2023-06-10T06:08:35;5.40;;;4.10;;
48743;SDS011;34538;48.836;9.174;2023-06-10T06:11:02;6.55;;;4.35;;
48743;SDS011;34538;48.836;9.174;2023-06-10T06:13:29;7.45;;;4.85;;
48743;SDS011;34538;48.836;9.174;2023-06-10T06:15:55;5.45;;;4.03;;
48743;SDS011;34538;48.836;9.174;2023-06-10T06:18:22;6.00;;;3.85;;
48743;SDS011;34538;48.836;9.174;2023-06-10T06:20:49;5.75;;;4.13;;
48743;SDS011;34538;48.836;9.174;2023-06-10T06:23:16;7.53;;;4.32;;
48743;SDS011;34538;48.836;9.174;2023-06-10T06:25:44;7.07;;;4.50;;
48743;SDS011;34538;48.836;9.174;2023-06-10T06:28:11;5.80;;;4.30;;
48743;SDS011;34538;48.836;9.174;2023-06-10T06:30:38;6.82;;;4.40;;
48743;SDS011;34538;48.836;9.174;2023-06-10T06:33:05;6.43;;;4.28;;
48743;SDS011;34538;48.836;9.174;2023-06-10T06:35:32;6.40;;;4.35;;
48743;SDS011;34538;48.836;9.174;2023-06-10T06:37:59;7.05;;;4.60;;
48743;SDS011;34538;48.836;9.174;2023-06-10T06:40:28;6.10;;;4.38;;
48743;SDS011;34538;48.836;9.174;2023-06-10T06:42:56;5.40;;;4.20;;
48743;SDS011;34538;48.836;9.174;2023-06-10T06:45:37;5.57;;;4.20;;
48743;SDS011;34538;48.836;9.174;2023-06-10T06:48:04;5.93;;;3.97;;
48743;SDS011;34538;48.836;9.174;2023-06-10T06:50:31;7.93;;;4.38;;
48743;SDS011;34538;48.836;9.174;2023-06-10T06:52:58;6.72;;;4.60;;
48743;SDS011;34538;48.836;9.174;2023-06-10T06:55:25;5.68;;;4.10;;
48743;SDS011;34538;48.836;9.174;2023-06-10T06:57:52;6.95;;;4.22;;
48743;SDS011;34538;48.836;9.174;2023-06-10T07:00:20;5.35;;;4.10;;
48743;SDS011;34538;48.836;9.174;2023-06-10T07:02:47;5.72;;;4.10;;
48743;SDS011;34538;48.836;9.174;2023-06-10T07:05:14;6.05;;;4.05;;
48743;SDS011;34538;48.836;9.174;2023-06-10T07:07:41;5.90;;;4.18;;
48743;SDS011;34538;48.836;9.174;2023-06-10T07:10:08;5.63;;;4.10;;
48743;SDS011;34538;48.836;9.174;2023-06-10T07:12:35;5.50;;;3.95;;
48743;SDS011;34538;48.836;9.174;2023-06-10T07:15:02;6.15;;;4.00;;
48743;SDS011;34538;48.836;9.174;2023-06-10T07:17:31;6.22;;;3.85;;
48743;SDS011;34538;48.836;9.174;2023-06-10T07:19:59;5.63;;;4.07;;
48743;SDS011;34538;48.836;9.174;2023-06-10T07:22:26;6.68;;;3.92;;
48743;SDS011;34538;48.836;9.174;2023-06-10T07:24:53;5.32;;;4.00;;
48743;SDS011;34538;48.836;9.174;2023-06-10T07:27:20;7.82;;;4.18;;
48743;SDS011;34538;48.836;9.174;2023-06-10T07:29:47;6.38;;;4.22;;
48743;SDS011;34538;48.836;9.174;2023-06-10T07:32:14;6.43;;;3.60;;
48743;SDS011;34538;48.836;9.174;2023-06-10T07:34:42;6.72;;;4.05;;
48743;SDS011;34538;48.836;9.174;2023-06-10T07:37:09;7.07;;;4.30;;
48743;SDS011;34538;48.836;9.174;2023-06-10T07:39:36;5.57;;;4.20;;
48743;SDS011;34538;48.836;9.174;2023-06-10T07:42:03;5.50;;;4.03;;
48743;SDS011;34538;48.836;9.174;2023-06-10T07:44:30;4.97;;;3.83;;
48743;SDS011;34538;48.836;9.174;2023-06-10T07:46:57;6.03;;;4.15;;
48743;SDS011;34538;48.836;9.174;2023-06-10T07:49:24;5.93;;;4.03;;
48743;SDS011;34538;48.836;9.174;2023-06-10T07:51:53;6.20;;;4.47;;
48743;SDS011;34538;48.836;9.174;2023-06-10T07:54:20;6.88;;;4.43;;
48743;SDS011;34538;48.836;9.174;2023-06-10T07:56:47;6.55;;;4.07;;
48743;SDS011;34538;48.836;9.174;2023-06-10T07:59:14;6.25;;;4.28;;
48743;SDS011;34538;48.836;9.174;2023-06-10T08:01:42;6.45;;;4.35;;
48743;SDS011;34538;48.836;9.174;2023-06-10T08:04:09;5.95;;;4.45;;
48743;SDS011;34538;48.836;9.174;2023-06-10T08:06:35;6.20;;;4.25;;
48743;SDS011;34538;48.836;9.174;2023-06-10T08:09:04;5.68;;;4.00;;
48743;SDS011;34538;48.836;9.174;2023-06-10T08:11:30;5.38;;;4.30;;
48743;SDS011;34538;48.836;9.174;2023-06-10T08:13:58;7.28;;;4.32;;
48743;SDS011;34538;48.836;9.174;2023-06-10T08:16:25;8.02;;;5.25;;
48743;SDS011;34538;48.836;9.174;2023-06-10T08:18:51;6.63;;;4.43;;
48743;SDS011;34538;48.836;9.174;2023-06-10T08:21:18;5.88;;;4.13;;
48743;SDS011;34538;48.836;9.174;2023-06-10T08:23:45;5.75;;;4.28;;
48743;SDS011;34538;48.836;9.174;2023-06-10T08:26:13;6.22;;;4.70;;
48743;SDS011;34538;48.836;9.174;2023-06-10T08:28:40;6.35;;;4.47;;
48743;SDS011;34538;48.836;9.174;2023-06-10T08:31:08;7.88;;;5.20;;
48743;SDS011;34538;48.836;9.174;2023-06-10T08:33:35;6.78;;;4.43;;
48743;SDS011;34538;48.836;9.174;2023-06-10T08:36:02;6.53;;;4.70;;
48743;SDS011;34538;48.836;9.174;2023-06-10T08:38:28;6.53;;;4.22;;
48743;SDS011;34538;48.836;9.174;2023-06-10T08:40:56;7.22;;;4.53;;
48743;SDS011;34538;48.836;9.174;2023-06-10T08:43:28;5.75;;;4.50;;
48743;SDS011;34538;48.836;9.174;2023-06-10T08:46:00;6.75;;;4.60;;
48743;SDS011;34538;48.836;9.174;2023-06-10T08:48:29;5.90;;;4.63;;
48743;SDS011;34538;48.836;9.174;2023-06-10T08:50:58;5.97;;;5.00;;
48743;SDS011;34538;48.836;9.174;2023-06-10T08:53:26;6.10;;;4.55;;
48743;SDS011;34538;48.836;9.174;2023-06-10T08:55:55;7.57;;;4.97;;
48743;SDS011;34538;48.836;9.174;2023-06-10T08:58:24;6.35;;;4.78;;
48743;SDS011;34538;48.836;9.174;2023-06-10T09:00:53;5.60;;;4.68;;
48743;SDS011;34538;48.836;9.174;2023-06-10T09:03:21;6.07;;;4.47;;
48743;SDS011;34538;48.836;9.174;2023-06-10T09:05:49;5.68;;;4.47;;
48743;SDS011;34538;48.836;9.174;2023-06-10T09:08:16;6.32;;;4.57;;
48743;SDS011;34538;48.836;9.174;2023-06-10T09:10:44;6.32;;;4.63;;
48743;SDS011;34538;48.836;9.174;2023-06-10T09:13:11;5.18;;;4.10;;
48743;SDS011;34538;48.836;9.174;2023-06-10T09:15:40;5.97;;;4.43;;
48743;SDS011;34538;48.836;9.174;2023-06-10T09:18:09;6.43;;;4.40;;
48743;SDS011;34538;48.836;9.174;2023-06-10T09:20:36;5.82;;;4.47;;
48743;SDS011;34538;48.836;9.174;2023-06-10T09:23:04;4.40;;;3.70;;
48743;SDS011;34538;48.836;9.174;2023-06-10T09:25:35;5.05;;;3.90;;
48743;SDS011;34538;48.836;9.174;2023-06-10T09:28:03;8.18;;;4.15;;
48743;SDS011;34538;48.836;9.174;2023-06-10T09:30:31;5.18;;;4.18;;
48743;SDS011;34538;48.836;9.174;2023-06-10T09:33:00;5.88;;;4.32;;
48743;SDS011;34538;48.836;9.174;2023-06-10T09:35:30;6.05;;;4.45;;
48743;SDS011;34538;48.836;9.174;2023-06-10T09:37:58;11.05;;;4.25;;
48743;SDS011;34538;48.836;9.174;2023-06-10T09:40:28;5.45;;;3.80;;
48743;SDS011;34538;48.836;9.174;2023-06-10T09:42:55;6.43;;;4.00;;
48743;SDS011;34538;48.836;9.174;2023-06-10T09:45:23;4.78;;;3.70;;
48743;SDS011;34538;48.836;9.174;2023-06-10T09:47:55;5.53;;;3.75;;
48743;SDS011;34538;48.836;9.174;2023-06-10T09:50:22;6.25;;;4.25;;
48743;SDS011;34538;48.836;9.174;2023-06-10T09:52:50;4.90;;;3.72;;
48743;SDS011;34538;48.836;9.174;2023-06-10T09:55:17;6.35;;;3.83;;
48743;SDS011;34538;48.836;9.174;2023-06-10T09:57:44;5.68;;;4.03;;
48743;SDS011;34538;48.836;9.174;2023-06-10T10:00:15;5.65;;;3.90;;
48743;SDS011;34538;48.836;9.174;2023-06-10T10:02:46;4.60;;;3.80;;
48743;SDS011;34538;48.836;9.174;2023-06-10T10:05:14;5.85;;;4.00;;
48743;SDS011;34538;48.836;9.174;2023-06-10T10:07:42;7.63;;;4.45;;
48743;SDS011;34538;48.836;9.174;2023-06-10T10:10:10;5.32;;;3.97;;
48743;SDS011;34538;48.836;9.174;2023-06-10T10:12:39;7.63;;;4.65;;
48743;SDS011;34538;48.836;9.174;2023-06-10T10:15:07;5.63;;;4.28;;
48743;SDS011;34538;48.836;9.174;2023-06-10T10:17:36;6.18;;;4.30;;
48743;SDS011;34538;48.836;9.174;2023-06-10T10:20:12;4.95;;;3.80;;
48743;SDS011;34538;48.836;9.174;2023-06-10T10:22:43;4.60;;;3.55;;
48743;SDS011;34538;48.836;9.174;2023-06-10T10:25:16;5.18;;;3.88;;
48743;SDS011;34538;48.836;9.174;2023-06-10T10:27:51;6.18;;;4.32;;
48743;SDS011;34538;48.836;9.174;2023-06-10T10:30:20;6.22;;;3.92;;
48743;SDS011;34538;48.836;9.174;2023-06-10T10:32:51;6.53;;;3.97;;
48743;SDS011;34538;48.836;9.174;2023-06-10T10:35:23;5.07;;;4.57;;
48743;SDS011;34538;48.836;9.174;2023-06-10T10:37:52;5.22;;;4.20;;
48743;SDS011;34538;48.836;9.174;2023-06-10T10:40:21;5.45;;;4.30;;
48743;SDS011;34538;48.836;9.174;2023-06-10T10:42:49;5.30;;;3.85;;
48743;SDS011;34538;48.836;9.174;2023-06-10T10:45:17;5.35;;;4.03;;
48743;SDS011;34538;48.836;9.174;2023-06-10T10:47:45;5.97;;;4.57;;
48743;SDS011;34538;48.836;9.174;2023-06-10T10:50:13;4.90;;;4.22;;
48743;SDS011;34538;48.836;9.174;2023-06-10T10:52:53;5.43;;;4.05;;
48743;SDS011;34538;48.836;9.174;2023-06-10T10:55:22;5.22;;;3.70;;
48743;SDS011;34538;48.836;9.174;2023-06-10T10:57:53;5.07;;;3.70;;
48743;SDS011;34538;48.836;9.174;2023-06-10T11:00:25;5.65;;;4.20;;
48743;SDS011;34538;48.836;9.174;2023-06-10T11:02:54;5.93;;;3.75;;
48743;SDS011;34538;48.836;9.174;2023-06-10T11:05:30;5.85;;;4.10;;
48743;SDS011;34538;48.836;9.174;2023-06-10T11:07:58;5.38;;;3.80;;
48743;SDS011;34538;48.836;9.174;2023-06-10T11:10:30;4.15;;;3.63;;
48743;SDS011;34538;48.836;9.174;2023-06-10T11:12:57;4.05;;;3.40;;
48743;SDS011;34538;48.836;9.174;2023-06-10T11:15:25;5.40;;;4.10;;
48743;SDS011;34538;48.836;9.174;2023-06-10T11:18:14;5.68;;;3.53;;
48743;SDS011;34538;48.836;9.174;2023-06-10T11:20:53;5.25;;;3.60;;
48743;SDS011;34538;48.836;9.174;2023-06-10T11:23:25;5.35;;;4.00;;
48743;SDS011;34538;48.836;9.174;2023-06-10T11:26:16;4.72;;;3.85;;
48743;SDS011;34538;48.836;9.174;2023-06-10T11:31:40;4.18;;;3.40;;
48743;SDS011;34538;48.836;9.174;2023-06-10T11:34:08;4.60;;;3.35;;
48743;SDS011;34538;48.836;9.174;2023-06-10T11:36:36;5.57;;;3.65;;
48743;SDS011;34538;48.836;9.174;2023-06-10T11:39:07;4.53;;;3.80;;
48743;SDS011;34538;48.836;9.174;2023-06-10T11:41:37;5.07;;;3.60;;
48743;SDS011;34538;48.836;9.174;2023-06-10T11:44:07;4.70;;;3.65;;
48743;SDS011;34538;48.836;9.174;2023-06-10T11:46:35;4.10;;;3.45;;
48743;SDS011;34538;48.836;9.174;2023-06-10T11:49:02;4.57;;;3.67;;
48743;SDS011;34538;48.836;9.174;2023-06-10T11:51:32;6.65;;;4.03;;
48743;SDS011;34538;48.836;9.174;2023-06-10T11:54:00;4.63;;;3.47;;
48743;SDS011;34538;48.836;9.174;2023-06-10T11:56:27;5.53;;;3.80;;
48743;SDS011;34538;48.836;9.174;2023-06-10T11:58:57;5.00;;;3.40;;
48743;SDS011;34538;48.836;9.174;2023-06-10T12:01:29;6.75;;;3.95;;
48743;SDS011;34538;48.836;9.174;2023-06-10T12:03:57;3.97;;;3.53;;
48743;SDS011;34538;48.836;9.174;2023-06-10T12:06:25;4.28;;;3.70;;
48743;SDS011;34538;48.836;9.174;2023-06-10T12:08:53;4.85;;;3.60;;
48743;SDS011;34538;48.836;9.174;2023-06-10T12:11:20;19.30;;;10.20;;
48743;SDS011;34538;48.836;9.174;2023-06-10T12:13:48;6.45;;;3.83;;
48743;SDS011;34538;48.836;9.174;2023-06-10T12:16:17;7.15;;;3.92;;
48743;SDS011;34538;48.836;9.174;2023-06-10T12:18:45;5.13;;;3.85;;
48743;SDS011;34538;48.836;9.174;2023-06-10T12:21:20;4.65;;;3.40;;
48743;SDS011;34538;48.836;9.174;2023-06-10T12:24:00;15.02;;;3.67;;
48743;SDS011;34538;48.836;9.174;2023-06-10T12:26:35;4.03;;;3.58;;
48743;SDS011;34538;48.836;9.174;2023-06-10T12:31:59;4.85;;;2.85;;
48743;SDS011;34538;48.836;9.174;2023-06-10T12:34:28;3.92;;;3.33;;
48743;SDS011;34538;48.836;9.174;2023-06-10T12:36:56;4.43;;;3.30;;
48743;SDS011;34538;48.836;9.174;2023-06-10T12:39:23;6.40;;;3.38;;
48743;SDS011;34538;48.836;9.174;2023-06-10T12:41:50;4.20;;;3.50;;
48743;SDS011;34538;48.836;9.174;2023-06-10T12:44:17;4.00;;;3.40;;
48743;SDS011;34538;48.836;9.174;2023-06-10T12:46:53;6.72;;;3.80;;
48743;SDS011;34538;48.836;9.174;2023-06-10T12:49:22;4.80;;;3.42;;
48743;SDS011;34538;48.836;9.174;2023-06-10T12:51:50;4.75;;;3.20;;
48743;SDS011;34538;48.836;9.174;2023-06-10T12:54:17;4.30;;;3.72;;
48743;SDS011;34538;48.836;9.174;2023-06-10T12:56:43;3.72;;;3.10;;
48743;SDS011;34538;48.836;9.174;2023-06-10T12:59:10;5.97;;;3.25;;
48743;SDS011;34538;48.836;9.174;2023-06-10T13:01:37;5.15;;;3.00;;
48743;SDS011;34538;48.836;9.174;2023-06-10T13:04:05;3.63;;;3.20;;
48743;SDS011;34538;48.836;9.174;2023-06-10T13:06:33;4.13;;;2.85;;
48743;SDS011;34538;48.836;9.174;2023-06-10T13:09:05;3.97;;;2.90;;
48743;SDS011;34538;48.836;9.174;2023-06-10T13:11:36;3.75;;;3.35;;
48743;SDS011;34538;48.836;9.174;2023-06-10T13:14:02;4.45;;;2.92;;
48743;SDS011;34538;48.836;9.174;2023-06-10T13:16:31;6.20;;;3.47;;
48743;SDS011;34538;48.836;9.174;2023-06-10T13:18:58;3.75;;;3.25;;
48743;SDS011;34538;48.836;9.174;2023-06-10T13:21:25;4.20;;;3.35;;
48743;SDS011;34538;48.836;9.174;2023-06-10T13:23:54;6.32;;;4.13;;
48743;SDS011;34538;48.836;9.174;2023-06-10T13:26:20;4.72;;;3.30;;
48743;SDS011;34538;48.836;9.174;2023-06-10T13:28:47;3.50;;;2.97;;
48743;SDS011;34538;48.836;9.174;2023-06-10T13:31:14;3.50;;;3.10;;
48743;SDS011;34538;48.836;9.174;2023-06-10T13:33:41;3.05;;;2.70;;
48743;SDS011;34538;48.836;9.174;2023-06-10T13:36:08;4.30;;;3.15;;
48743;SDS011;34538;48.836;9.174;2023-06-10T13:38:36;3.75;;;3.13;;
48743;SDS011;34538;48.836;9.174;2023-06-10T13:41:04;3.20;;;2.72;;
48743;SDS011;34538;48.836;9.174;2023-06-10T13:43:31;3.65;;;3.20;;
48743;SDS011;34538;48.836;9.174;2023-06-10T13:45:58;3.30;;;2.72;;
48743;SDS011;34538;48.836;9.174;2023-06-10T13:48:25;5.20;;;4.40;;
48743;SDS011;34538;48.836;9.174;2023-06-10T13:50:52;4.20;;;3.17;;
48743;SDS011;34538;48.836;9.174;2023-06-10T13:53:18;3.35;;;2.88;;
48743;SDS011;34538;48.836;9.174;2023-06-10T13:55:45;3.17;;;2.88;;
48743;SDS011;34538;48.836;9.174;2023-06-10T13:58:13;3.22;;;2.60;;
48743;SDS011;34538;48.836;9.174;2023-06-10T14:00:40;3.47;;;2.75;;
48743;SDS011;34538;48.836;9.174;2023-06-10T14:03:07;4.72;;;3.40;;
48743;SDS011;34538;48.836;9.174;2023-06-10T14:05:34;3.90;;;2.85;;
48743;SDS011;34538;48.836;9.174;2023-06-10T14:08:01;3.53;;;2.83;;
48743;SDS011;34538;48.836;9.174;2023-06-10T14:10:28;4.20;;;3.40;;
48743;SDS011;34538;48.836;9.174;2023-06-10T14:12:54;4.35;;;3.20;;
48743;SDS011;34538;48.836;9.174;2023-06-10T14:15:23;3.85;;;3.20;;
48743;SDS011;34538;48.836;9.174;2023-06-10T14:17:49;4.45;;;3.30;;
48743;SDS011;34538;48.836;9.174;2023-06-10T14:20:16;4.68;;;3.20;;
48743;SDS011;34538;48.836;9.174;2023-06-10T14:22:43;4.47;;;3.45;;
48743;SDS011;34538;48.836;9.174;2023-06-10T14:25:10;5.07;;;4.07;;
48743;SDS011;34538;48.836;9.174;2023-06-10T14:27:37;4.72;;;3.42;;
48743;SDS011;34538;48.836;9.174;2023-06-10T14:30:04;3.72;;;3.33;;
48743;SDS011;34538;48.836;9.174;2023-06-10T14:32:33;4.85;;;3.65;;
48743;SDS011;34538;48.836;9.174;2023-06-10T14:35:00;5.45;;;3.25;;
48743;SDS011;34538;48.836;9.174;2023-06-10T14:37:27;5.53;;;3.38;;
48743;SDS011;34538;48.836;9.174;2023-06-10T14:39:53;5.22;;;3.25;;
48743;SDS011;34538;48.836;9.174;2023-06-10T14:42:20;4.95;;;3.50;;
48743;SDS011;34538;48.836;9.174;2023-06-10T14:44:47;4.88;;;3.60;;
48743;SDS011;34538;48.836;9.174;2023-06-10T14:47:14;5.65;;;3.60;;
48743;SDS011;34538;48.836;9.174;2023-06-10T14:49:42;3.78;;;3.22;;
48743;SDS011;34538;48.836;9.174;2023-06-10T14:52:09;5.43;;;3.50;;
48743;SDS011;34538;48.836;9.174;2023-06-10T14:54:36;3.38;;;3.08;;
48743;SDS011;34538;48.836;9.174;2023-06-10T14:57:03;4.13;;;3.40;;